Time;durP1;ratioP1;P1;durP2;ratioP2;P2;SDS_P1;SDS_P2;PMS_P1;PMS_P2;Temp;Humidity;BMP_temperature;BMP_pressure;BME280_temperature;BME280_humidity;BME280_pressure;Samples;Min_cycle;Max_cycle;Signal;HPM_P1;HPM_P2
2022/11/21 00:01:31;;;;;;;8.75;5.32;;;13.50;78.90;;;;;;5066744;28;20043;-83
2022/11/21 00:03:56;;;;;;;7.65;4.70;;;13.50;78.80;;;;;;5057520;28;20108;-81
2022/11/21 00:06:22;;;;;;;9.48;5.13;;;13.50;78.60;;;;;;5054329;28;20492;-81
2022/11/21 00:08:48;;;;;;;9.15;5.15;;;13.50;78.60;;;;;;5054791;28;20133;-82
2022/11/21 00:11:14;;;;;;;8.55;4.85;;;13.50;78.50;;;;;;5055269;28;20100;-82
2022/11/21 00:13:40;;;;;;;8.98;4.80;;;13.50;78.40;;;;;;5060460;28;20025;-81
2022/11/21 00:16:09;;;;;;;8.05;5.03;;;13.50;78.20;;;;;;5054528;28;20032;-81
2022/11/21 00:18:34;;;;;;;11.18;4.90;;;13.50;78.30;;;;;;5060008;28;20025;-81
2022/11/21 00:21:09;;;;;;;10.20;4.97;;;13.50;78.50;;;;;;5051874;28;20044;-81
2022/11/21 00:23:34;;;;;;;7.93;5.05;;;13.40;78.50;;;;;;5067208;28;20052;-81
2022/11/21 00:26:08;;;;;;;8.82;5.20;;;13.40;78.50;;;;;;5069795;28;20028;-83
2022/11/21 00:28:34;;;;;;;7.63;5.28;;;13.40;78.60;;;;;;5053539;28;20021;-81
2022/11/21 00:31:00;;;;;;;8.48;5.30;;;13.40;78.50;;;;;;5060705;28;20028;-81
2022/11/21 00:33:25;;;;;;;9.52;5.35;;;13.40;78.50;;;;;;5074447;28;20767;-81
2022/11/21 00:35:51;;;;;;;8.30;5.20;;;13.40;78.40;;;;;;5056238;28;20021;-82
2022/11/21 00:38:16;;;;;;;8.73;5.55;;;13.30;78.30;;;;;;5073560;28;20052;-83
2022/11/21 00:40:43;;;;;;;10.05;5.07;;;13.30;78.20;;;;;;5081105;28;20384;-83
2022/11/21 00:43:08;;;;;;;8.70;5.53;;;13.30;78.30;;;;;;5081607;28;20021;-83
2022/11/21 00:45:34;;;;;;;9.20;5.10;;;13.30;78.50;;;;;;5077442;28;20555;-82
2022/11/21 00:47:59;;;;;;;7.72;5.35;;;13.30;78.30;;;;;;5064643;28;20029;-82
2022/11/21 00:50:25;;;;;;;8.27;5.10;;;13.30;78.30;;;;;;5083278;28;20068;-80
2022/11/21 00:52:57;;;;;;;7.45;4.82;;;13.30;78.40;;;;;;5064561;28;20028;-82
2022/11/21 00:55:24;;;;;;;9.10;5.10;;;13.30;78.50;;;;;;5064254;28;20790;-81
2022/11/21 00:57:50;;;;;;;8.60;5.18;;;13.20;78.40;;;;;;5063926;28;20025;-82
2022/11/21 01:00:16;;;;;;;8.93;5.25;;;13.20;78.40;;;;;;5063349;28;20037;-83
2022/11/21 01:02:42;;;;;;;7.40;4.93;;;13.20;78.30;;;;;;5063728;28;20017;-80
2022/11/21 01:05:08;;;;;;;8.18;5.00;;;13.20;78.30;;;;;;5054308;28;20029;-81
2022/11/21 01:07:33;;;;;;;7.90;4.90;;;13.20;78.40;;;;;;5060793;28;20048;-82
2022/11/21 01:09:59;;;;;;;9.35;5.10;;;13.20;78.40;;;;;;5064649;28;20453;-82
2022/11/21 01:12:25;;;;;;;7.30;4.68;;;13.20;78.40;;;;;;5064467;28;20025;-82
2022/11/21 01:14:50;;;;;;;7.45;4.15;;;13.20;78.40;;;;;;5077263;28;20086;-82
2022/11/21 01:17:16;;;;;;;7.85;5.22;;;13.20;78.40;;;;;;5077769;28;20024;-81
2022/11/21 01:19:41;;;;;;;8.13;5.40;;;13.20;78.20;;;;;;5065811;28;20049;-80
2022/11/21 01:22:07;;;;;;;7.45;4.68;;;13.20;78.00;;;;;;5061081;28;20520;-81
2022/11/21 01:24:33;;;;;;;7.75;4.72;;;13.20;77.90;;;;;;5075155;28;20484;-82
2022/11/21 01:26:58;;;;;;;7.82;4.82;;;13.20;77.80;;;;;;5071193;28;20025;-83
2022/11/21 01:29:24;;;;;;;7.40;4.90;;;13.30;77.80;;;;;;5067594;28;20591;-82
2022/11/21 01:31:49;;;;;;;7.63;5.07;;;13.30;77.80;;;;;;5086225;28;20027;-83
2022/11/21 01:34:15;;;;;;;7.82;5.00;;;13.30;77.70;;;;;;5080333;28;20021;-82
2022/11/21 01:36:41;;;;;;;7.68;4.60;;;13.30;77.80;;;;;;5064550;28;20048;-83
2022/11/21 01:39:07;;;;;;;7.30;4.95;;;13.30;77.80;;;;;;5067246;28;20098;-83
2022/11/21 01:41:35;;;;;;;6.82;4.78;;;13.30;77.90;;;;;;5066755;28;20021;-82
2022/11/21 01:44:05;;;;;;;7.78;5.00;;;13.20;78.10;;;;;;5072723;28;20028;-82
2022/11/21 01:46:31;;;;;;;7.65;4.85;;;13.20;78.00;;;;;;5058399;28;20021;-81
2022/11/21 01:49:11;;;;;;;7.80;4.90;;;13.20;78.20;;;;;;5079421;28;20028;-83
2022/11/21 01:51:57;;;;;;;9.27;4.70;;;13.20;78.90;;;;;;5081845;28;20028;-81
2022/11/21 01:54:46;;;;;;;7.43;4.93;;;13.20;78.30;;;;;;5074577;28;20055;-81
2022/11/21 01:57:20;;;;;;;7.40;4.95;;;13.10;78.30;;;;;;5069916;28;20033;-82
2022/11/21 01:59:56;;;;;;;8.02;4.82;;;13.10;78.30;;;;;;5061240;28;20055;-82
2022/11/21 02:02:27;;;;;;;6.90;4.60;;;13.10;78.20;;;;;;5062935;28;20055;-81
2022/11/21 02:04:53;;;;;;;8.43;4.90;;;13.10;78.20;;;;;;5061359;28;20093;-82
2022/11/21 02:07:21;;;;;;;7.35;4.82;;;13.10;78.20;;;;;;5060905;28;20616;-82
2022/11/21 02:09:52;;;;;;;7.40;4.80;;;13.10;78.30;;;;;;5060488;28;20471;-82
2022/11/21 02:12:40;;;;;;;6.70;4.55;;;13.10;78.20;;;;;;5063504;28;20027;-82
2022/11/21 02:15:06;;;;;;;7.20;4.78;;;13.10;78.20;;;;;;5075664;28;20029;-80
2022/11/21 02:17:32;;;;;;;6.97;4.63;;;13.10;78.30;;;;;;5074212;28;20036;-81
2022/11/21 02:20:00;;;;;;;6.80;4.50;;;13.10;78.30;;;;;;5076874;28;20032;-83
2022/11/21 02:22:43;;;;;;;7.60;4.63;;;13.10;78.30;;;;;;5075642;28;20392;-82
2022/11/21 02:25:10;;;;;;;6.95;4.75;;;13.10;78.30;;;;;;5059378;28;20519;-81
2022/11/21 02:27:36;;;;;;;7.45;4.78;;;13.10;78.30;;;;;;5075500;28;20025;-82
2022/11/21 02:30:04;;;;;;;7.43;4.65;;;13.00;78.20;;;;;;5072372;28;20374;-82
2022/11/21 02:32:46;;;;;;;8.13;4.88;;;13.10;78.30;;;;;;5059868;28;20031;-82
2022/11/21 02:35:12;;;;;;;;;;;13.00;78.20;;;;;;5060361;28;20091;-81
2022/11/21 02:37:37;;;;;;;7.35;4.38;;;13.00;78.20;;;;;;5060399;28;19913;-82
2022/11/21 02:40:15;;;;;;;6.97;4.47;;;13.00;78.10;;;;;;5073382;28;20553;-81
2022/11/21 02:43:06;;;;;;;7.28;3.92;;;13.10;78.30;;;;;;5057456;28;20636;-81
2022/11/21 02:45:38;;;;;;;6.35;4.45;;;13.00;78.10;;;;;;5055043;28;20442;-81
2022/11/21 02:48:04;;;;;;;;;;;13.00;78.00;;;;;;5060235;28;20085;-81
2022/11/21 02:50:32;;;;;;;7.40;4.75;;;13.10;78.00;;;;;;5071988;28;19939;-81
2022/11/21 02:52:58;;;;;;;8.52;5.13;;;13.10;77.90;;;;;;5073782;28;20025;-81
2022/11/21 02:55:25;;;;;;;6.60;4.32;;;13.10;77.80;;;;;;5056737;28;20516;-81
2022/11/21 02:57:51;;;;;;;7.38;4.88;;;13.10;77.80;;;;;;5089037;28;20169;-82
2022/11/21 03:00:17;;;;;;;7.47;4.93;;;13.10;77.60;;;;;;5096145;28;20803;-81
2022/11/21 03:02:43;;;;;;;7.00;4.50;;;13.10;77.60;;;;;;5097244;28;20024;-81
2022/11/21 03:05:13;;;;;;;6.97;4.40;;;13.10;77.60;;;;;;5096932;28;20031;-81
2022/11/21 03:07:38;;;;;;;6.50;4.20;;;13.10;77.70;;;;;;5097776;28;20059;-81
2022/11/21 03:10:04;;;;;;;7.15;4.75;;;13.10;77.80;;;;;;5074124;28;20033;-81
2022/11/21 03:12:30;;;;;;;6.28;4.18;;;13.10;78.00;;;;;;5053729;28;20396;-81
2022/11/21 03:14:55;;;;;;;6.20;4.10;;;13.00;78.10;;;;;;5053634;28;20029;-81
2022/11/21 03:17:21;;;;;;;6.47;4.32;;;13.00;78.20;;;;;;5054434;28;20389;-81
2022/11/21 03:19:46;;;;;;;6.78;4.40;;;13.00;78.30;;;;;;5066477;28;20039;-82
2022/11/21 03:22:13;;;;;;;7.15;4.80;;;13.00;78.20;;;;;;5063115;28;20025;-81
2022/11/21 03:24:39;;;;;;;6.97;4.65;;;13.00;78.20;;;;;;5054551;28;20694;-82
2022/11/21 03:27:05;;;;;;;8.55;4.63;;;13.00;78.30;;;;;;5055058;28;20025;-81
2022/11/21 03:29:30;;;;;;;7.07;4.38;;;13.00;78.20;;;;;;5054593;28;20032;-82
2022/11/21 03:31:56;;;;;;;6.47;4.45;;;13.00;78.20;;;;;;5054416;28;20096;-82
2022/11/21 03:34:21;;;;;;;6.85;4.47;;;13.00;78.40;;;;;;5053389;28;20021;-81
2022/11/21 03:36:47;;;;;;;7.53;4.63;;;13.00;78.30;;;;;;5062383;28;20388;-83
2022/11/21 03:39:12;;;;;;;7.35;4.70;;;13.10;78.20;;;;;;5069974;28;20020;-81
2022/11/21 03:41:38;;;;;;;7.63;4.78;;;12.90;78.20;;;;;;5074311;28;20024;-81
2022/11/21 03:44:09;;;;;;;6.22;4.10;;;12.90;78.10;;;;;;5068411;28;20021;-81
2022/11/21 03:46:37;;;;;;;6.90;4.50;;;12.90;78.20;;;;;;5062947;28;20024;-80
2022/11/21 03:49:03;;;;;;;6.85;4.30;;;12.90;78.10;;;;;;5064948;28;20269;-81
2022/11/21 03:51:29;;;;;;;7.40;4.55;;;12.90;78.10;;;;;;5063121;28;20040;-80
2022/11/21 03:53:55;;;;;;;6.55;4.10;;;12.90;78.10;;;;;;5065571;28;20021;-81
2022/11/21 03:56:21;;;;;;;7.40;4.97;;;12.90;78.10;;;;;;5061555;28;20107;-81
2022/11/21 03:58:47;;;;;;;6.78;4.30;;;12.90;78.10;;;;;;5074650;28;20112;-81
2022/11/21 04:01:13;;;;;;;6.32;4.30;;;12.90;78.10;;;;;;5064042;28;20527;-81
2022/11/21 04:03:40;;;;;;;7.80;4.80;;;12.90;78.10;;;;;;5061421;28;20027;-83
2022/11/21 04:06:05;;;;;;;6.70;4.38;;;12.90;78.10;;;;;;5063139;28;20036;-82
2022/11/21 04:08:31;;;;;;;6.85;4.40;;;12.90;78.10;;;;;;5063291;28;20033;-82
2022/11/21 04:10:57;;;;;;;6.35;4.25;;;12.90;78.10;;;;;;5065621;28;20037;-83
2022/11/21 04:13:22;;;;;;;6.70;4.32;;;12.90;78.00;;;;;;5064132;28;20029;-82
2022/11/21 04:15:48;;;;;;;6.80;4.60;;;12.90;77.90;;;;;;5062940;28;20045;-81
2022/11/21 04:18:13;;;;;;;6.82;4.32;;;12.90;77.80;;;;;;5061409;28;20021;-82
2022/11/21 04:20:39;;;;;;;6.60;4.03;;;12.90;77.90;;;;;;5070117;28;20085;-82
2022/11/21 04:23:05;;;;;;;6.35;4.10;;;12.90;77.80;;;;;;5084700;28;20026;-82
2022/11/21 04:25:32;;;;;;;7.03;4.32;;;12.90;77.80;;;;;;5085562;28;20063;-82
2022/11/21 04:27:59;;;;;;;7.00;4.40;;;13.00;77.70;;;;;;5083574;28;20043;-82
2022/11/21 04:30:25;;;;;;;7.07;4.75;;;13.00;77.60;;;;;;5069657;28;20370;-81
2022/11/21 04:32:51;;;;;;;6.13;4.03;;;13.00;77.50;;;;;;5070148;28;20039;-81
2022/11/21 04:35:17;;;;;;;6.03;4.20;;;13.00;77.60;;;;;;5077436;28;20028;-81
2022/11/21 04:37:43;;;;;;;6.38;4.13;;;13.00;77.70;;;;;;5082068;28;20024;-82
2022/11/21 04:40:09;;;;;;;7.15;4.53;;;12.90;77.70;;;;;;5072315;28;20029;-82
2022/11/21 04:42:35;;;;;;;7.28;4.63;;;12.90;77.80;;;;;;5069277;28;20122;-81
2022/11/21 04:45:00;;;;;;;7.22;4.20;;;12.90;77.90;;;;;;5079454;28;20028;-82
2022/11/21 04:47:26;;;;;;;5.90;3.90;;;12.90;78.10;;;;;;5062189;28;20017;-82
2022/11/21 04:49:51;;;;;;;6.53;4.25;;;12.90;78.10;;;;;;5069094;28;20024;-82
2022/11/21 04:52:17;;;;;;;6.68;4.47;;;12.90;78.10;;;;;;5070206;28;20024;-81
2022/11/21 04:54:42;;;;;;;6.10;4.07;;;12.80;78.10;;;;;;5062508;28;20033;-82
2022/11/21 04:57:08;;;;;;;6.72;4.30;;;12.90;78.20;;;;;;5063168;28;20075;-83
2022/11/21 04:59:33;;;;;;;6.25;4.28;;;12.80;78.20;;;;;;5061243;28;20119;-81
2022/11/21 05:02:01;;;;;;;7.90;4.55;;;12.80;78.10;;;;;;5072910;28;20017;-80
2022/11/21 05:04:26;;;;;;;6.32;3.92;;;12.80;78.20;;;;;;5059991;28;20033;-80
2022/11/21 05:06:52;;;;;;;7.07;4.40;;;12.80;78.20;;;;;;5062910;28;20021;-81
2022/11/21 05:09:17;;;;;;;6.45;4.22;;;12.80;78.20;;;;;;5066492;28;20086;-81
2022/11/21 05:14:27;;;;;;;6.75;4.35;;;12.80;78.20;;;;;;5080741;28;20120;-79
2022/11/21 05:16:53;;;;;;;6.43;4.40;;;12.80;78.10;;;;;;5060604;28;20045;-79
2022/11/21 05:19:18;;;;;;;6.18;4.18;;;12.80;78.00;;;;;;5057173;28;20517;-78
2022/11/21 05:21:44;;;;;;;7.05;4.40;;;12.80;78.00;;;;;;5070051;28;20045;-78
2022/11/21 05:24:09;;;;;;;6.60;4.20;;;12.80;78.00;;;;;;5073046;28;20480;-79
2022/11/21 05:26:36;;;;;;;6.72;4.25;;;12.80;77.90;;;;;;5064851;28;20040;-79
2022/11/21 05:29:02;;;;;;;6.57;3.97;;;12.80;77.90;;;;;;5055071;28;20033;-77
2022/11/21 05:31:28;;;;;;;7.07;4.50;;;12.80;77.80;;;;;;5063184;28;20524;-77
2022/11/21 05:33:54;;;;;;;7.20;4.30;;;12.80;77.80;;;;;;5069337;28;20040;-77
2022/11/21 05:36:19;;;;;;;7.85;4.22;;;12.80;77.90;;;;;;5075101;28;20027;-81
2022/11/21 05:38:45;;;;;;;6.07;4.05;;;12.70;77.60;;;;;;5078879;28;20060;-79
2022/11/21 05:41:10;;;;;;;7.00;4.28;;;12.80;77.70;;;;;;5067570;28;20033;-76
2022/11/21 05:43:44;;;;;;;7.20;4.35;;;12.80;77.80;;;;;;5073961;28;20035;-80
2022/11/21 05:46:15;;;;;;;6.38;4.35;;;12.80;77.80;;;;;;5068783;28;20070;-79
2022/11/21 05:48:41;;;;;;;6.13;4.15;;;12.80;77.70;;;;;;5072880;28;20024;-78
2022/11/21 05:51:07;;;;;;;9.32;5.25;;;12.80;77.70;;;;;;5070431;28;20031;-79
2022/11/21 05:53:33;;;;;;;7.88;5.00;;;12.80;77.20;;;;;;5055540;28;20021;-77
2022/11/21 05:56:08;;;;;;;9.20;4.70;;;12.80;76.10;;;;;;5063645;28;20094;-79
2022/11/21 05:58:34;;;;;;;11.30;5.30;;;12.80;76.30;;;;;;5061734;28;20048;-77
2022/11/21 06:01:00;;;;;;;10.55;5.55;;;12.80;76.20;;;;;;5064337;28;20408;-78
2022/11/21 06:03:31;;;;;;;9.75;5.88;;;12.90;75.90;;;;;;5055880;28;20024;-78
2022/11/21 06:06:17;;;;;;;10.88;5.85;;;12.90;75.70;;;;;;5059665;28;20056;-77
2022/11/21 06:08:45;;;;;;;10.98;5.85;;;12.80;76.00;;;;;;5064423;28;20078;-78
2022/11/21 06:11:14;;;;;;;9.75;5.65;;;12.80;75.80;;;;;;5059064;28;20024;-78
2022/11/21 06:13:41;;;;;;;9.82;6.22;;;12.80;75.90;;;;;;5058901;28;20510;-74
2022/11/21 06:16:18;;;;;;;9.40;5.80;;;12.80;75.90;;;;;;5060047;28;20479;-75
2022/11/21 06:18:46;;;;;;;9.52;5.88;;;12.80;76.10;;;;;;5052458;28;20036;-78
2022/11/21 06:21:15;;;;;;;10.07;5.60;;;12.70;76.00;;;;;;5059698;28;20083;-74
2022/11/21 06:23:41;;;;;;;8.77;5.63;;;12.70;76.10;;;;;;5058008;28;20511;-77
2022/11/21 06:26:10;;;;;;;10.48;6.90;;;12.70;76.30;;;;;;5054063;28;20024;-77
2022/11/21 06:28:38;;;;;;;12.90;7.03;;;12.70;75.30;;;;;;5054115;28;20032;-77
2022/11/21 06:31:13;;;;;;;11.45;6.47;;;12.70;75.40;;;;;;5060726;28;20404;-78
2022/11/21 06:33:39;;;;;;;11.52;6.53;;;12.70;75.30;;;;;;5067946;28;20074;-77
2022/11/21 06:36:07;;;;;;;11.77;6.75;;;12.70;75.60;;;;;;5064607;28;20031;-78
2022/11/21 06:38:32;;;;;;;10.65;6.32;;;12.70;75.80;;;;;;5072586;28;20031;-78
2022/11/21 06:41:05;;;;;;;10.43;6.78;;;12.70;75.90;;;;;;5073421;28;20029;-76
2022/11/21 06:43:30;;;;;;;13.13;7.38;;;12.70;76.10;;;;;;5064673;28;20028;-74
2022/11/21 06:45:57;;;;;;;11.68;6.65;;;12.70;76.20;;;;;;5059548;28;20384;-74
2022/11/21 06:48:23;;;;;;;10.05;6.43;;;12.70;76.30;;;;;;5070649;28;20023;-78
2022/11/21 06:50:49;;;;;;;10.68;6.60;;;12.70;76.20;;;;;;5072025;28;20032;-79
2022/11/21 06:53:14;;;;;;;9.52;6.40;;;12.70;76.40;;;;;;5072660;28;20032;-78
2022/11/21 06:55:40;;;;;;;10.35;6.28;;;12.70;76.50;;;;;;5073005;28;20036;-79
2022/11/21 06:58:05;;;;;;;9.93;6.30;;;12.70;76.50;;;;;;5074863;28;20399;-79
2022/11/21 07:00:31;;;;;;;10.20;6.60;;;12.70;76.50;;;;;;5073239;28;20051;-80
2022/11/21 07:03:00;;;;;;;11.23;6.40;;;12.60;76.50;;;;;;5074253;28;20028;-79
2022/11/21 07:05:27;;;;;;;9.48;5.80;;;12.60;76.50;;;;;;5073927;28;20029;-79
2022/11/21 07:07:58;;;;;;;9.38;6.00;;;12.70;76.70;;;;;;5075062;28;20028;-78
2022/11/21 07:10:23;;;;;;;9.45;5.80;;;12.70;76.70;;;;;;5072324;28;20048;-79
2022/11/21 07:15:33;;;;;;;9.82;6.70;;;12.70;76.60;;;;;;5074057;28;20036;-77
2022/11/21 07:17:58;;;;;;;12.07;6.53;;;12.70;76.70;;;;;;5072174;28;20045;-78
2022/11/21 07:20:24;;;;;;;9.95;6.22;;;12.70;76.80;;;;;;5072823;28;20111;-79
2022/11/21 07:22:53;;;;;;;9.93;6.32;;;12.70;76.80;;;;;;5073616;28;20388;-78
2022/11/21 07:25:19;;;;;;;9.38;5.97;;;12.80;76.70;;;;;;5072397;28;20032;-78
2022/11/21 07:27:44;;;;;;;10.55;6.15;;;12.80;76.70;;;;;;5072327;28;20483;-79
2022/11/21 07:30:10;;;;;;;10.13;6.63;;;12.80;76.60;;;;;;5071183;28;20025;-78
2022/11/21 07:32:36;;;;;;;10.40;5.63;;;12.90;76.60;;;;;;5074599;28;20069;-79
2022/11/21 07:35:01;;;;;;;10.13;6.03;;;12.90;76.40;;;;;;5075131;28;20484;-79
2022/11/21 07:37:27;;;;;;;8.93;5.95;;;12.90;76.30;;;;;;5073413;28;20028;-80
2022/11/21 07:39:52;;;;;;;9.00;5.82;;;13.00;76.20;;;;;;5072796;28;20028;-78
2022/11/21 07:42:18;;;;;;;8.07;5.38;;;13.00;76.20;;;;;;5074331;28;20031;-79
2022/11/21 07:44:43;;;;;;;9.60;5.68;;;13.00;76.10;;;;;;5072629;28;20016;-80
2022/11/21 07:47:09;;;;;;;9.68;5.70;;;13.00;76.00;;;;;;5073337;28;20032;-80
2022/11/21 07:49:34;;;;;;;9.80;5.97;;;13.00;76.00;;;;;;5073839;28;20060;-76
2022/11/21 07:52:00;;;;;;;9.55;5.95;;;13.10;76.00;;;;;;5073879;28;20028;-80
2022/11/21 07:54:25;;;;;;;8.57;5.82;;;13.10;75.80;;;;;;5072776;28;20449;-78
2022/11/21 07:56:51;;;;;;;9.05;6.10;;;13.10;75.80;;;;;;5073776;28;20107;-79
2022/11/21 07:59:18;;;;;;;9.00;6.05;;;13.10;75.70;;;;;;5072727;28;20028;-80
2022/11/21 08:01:43;;;;;;;8.80;5.28;;;13.20;75.70;;;;;;5073294;28;20017;-78
2022/11/21 08:04:09;;;;;;;9.07;5.85;;;13.20;75.60;;;;;;5074404;28;20025;-79
2022/11/21 08:06:34;;;;;;;8.65;6.03;;;13.20;75.60;;;;;;5072576;28;20404;-79
2022/11/21 08:09:00;;;;;;;9.02;5.88;;;13.30;75.50;;;;;;5073506;28;20404;-78
2022/11/21 08:11:25;;;;;;;10.07;5.80;;;13.30;75.40;;;;;;5071275;28;20033;-78
2022/11/21 08:42:56;;;;;;;8.40;5.63;;;13.60;74.30;;;;;;5815128;23;20045;-84
2022/11/21 08:48:16;;;;;;;8.10;5.30;;;13.70;74.20;;;;;;5091834;28;20031;-84
2022/11/21 09:09:20;;;;;;;7.30;4.63;;;14.00;73.20;;;;;;5631105;23;20058;-85
2022/11/21 09:11:49;;;;;;;6.60;4.47;;;14.00;73.10;;;;;;5013336;28;20026;-85
2022/11/21 09:19:48;;;;;;;7.28;5.10;;;14.10;73.40;;;;;;5024775;28;20461;-85
2022/11/21 09:22:13;;;;;;;7.03;4.80;;;14.10;73.20;;;;;;5007434;28;20018;-85
2022/11/21 09:24:39;;;;;;;7.30;4.68;;;14.10;73.10;;;;;;5003592;28;20033;-85
2022/11/21 09:30:10;;;;;;;7.22;4.82;;;14.00;73.30;;;;;;5028699;28;20049;-87
2022/11/21 09:32:35;;;;;;;7.10;5.03;;;14.10;73.20;;;;;;5008977;28;20061;-84
2022/11/21 09:35:01;;;;;;;7.63;5.18;;;14.10;73.20;;;;;;4988079;28;20034;-84
2022/11/21 09:37:27;;;;;;;7.68;5.00;;;14.10;73.20;;;;;;5001405;28;20045;-85
2022/11/21 09:39:53;;;;;;;7.38;4.88;;;14.10;73.10;;;;;;5001160;28;20482;-85
2022/11/21 09:48:41;;;;;;;7.68;4.85;;;14.10;73.20;;;;;;5191121;23;20569;-86
2022/11/21 09:51:11;;;;;;;7.28;4.82;;;14.20;73.10;;;;;;4998959;28;20065;-86
2022/11/21 09:53:47;;;;;;;7.57;5.28;;;14.20;73.10;;;;;;4997429;28;20038;-86
2022/11/21 09:56:20;;;;;;;7.47;5.13;;;14.30;73.10;;;;;;4995017;28;20032;-86
2022/11/21 09:59:28;;;;;;;8.02;5.20;;;14.20;73.00;;;;;;4998423;28;20034;-86
2022/11/21 10:01:54;;;;;;;7.37;4.63;;;14.20;73.00;;;;;;4981296;28;20458;-86
2022/11/21 10:04:20;;;;;;;7.45;5.22;;;14.20;72.80;;;;;;4995838;28;20026;-86
2022/11/21 10:07:02;;;;;;;7.45;4.70;;;14.20;72.70;;;;;;4995732;28;20073;-86
2022/11/21 10:13:30;;;;;;;6.88;4.50;;;14.30;72.60;;;;;;5513517;22;20057;-85
2022/11/21 10:19:37;;;;;;;6.88;4.63;;;14.30;72.70;;;;;;5000019;28;20101;-86
2022/11/21 10:26:00;;;;;;;7.00;4.45;;;14.40;72.60;;;;;;4920498;29;20050;-85
2022/11/21 10:31:47;;;;;;;7.95;5.22;;;14.40;73.70;;;;;;5083120;23;20497;-86
2022/11/21 10:34:17;;;;;;;7.47;5.18;;;14.40;73.40;;;;;;4993867;28;20161;-85
2022/11/21 10:36:48;;;;;;;7.72;5.13;;;14.40;73.30;;;;;;4993525;28;20027;-85
2022/11/21 10:39:24;;;;;;;6.77;4.37;;;14.50;73.20;;;;;;4994347;28;20490;-85
2022/11/21 10:42:23;;;;;;;6.78;4.75;;;14.50;73.00;;;;;;4993559;28;20023;-85
2022/11/21 10:47:36;;;;;;;7.13;4.80;;;14.60;72.60;;;;;;4996256;28;20454;-85
2022/11/21 10:50:07;;;;;;;7.07;4.78;;;14.60;73.00;;;;;;4993939;28;20104;-84
2022/11/21 10:52:41;;;;;;;7.00;4.82;;;14.60;72.60;;;;;;4993334;28;20030;-86
2022/11/21 10:55:10;;;;;;;6.68;4.53;;;14.60;72.50;;;;;;4978077;28;20030;-85
2022/11/21 10:57:44;;;;;;;7.03;4.65;;;14.60;72.40;;;;;;4993833;28;20493;-84
2022/11/21 11:00:15;;;;;;;7.20;4.97;;;14.60;71.80;;;;;;4994105;28;20498;-86
2022/11/21 11:02:59;;;;;;;7.90;4.88;;;14.60;71.80;;;;;;4993698;28;20025;-86
2022/11/21 11:05:26;;;;;;;6.80;4.50;;;14.60;71.80;;;;;;4993815;28;20133;-86
2022/11/21 11:08:08;;;;;;;7.03;4.63;;;14.60;71.80;;;;;;4993264;28;20116;-86
2022/11/21 11:10:36;;;;;;;6.65;4.30;;;14.60;71.80;;;;;;4992721;28;20113;-85
2022/11/21 11:16:00;;;;;;;6.00;4.05;;;14.60;71.80;;;;;;4994833;28;20602;-85
2022/11/21 11:18:26;;;;;;;7.18;4.70;;;14.60;71.90;;;;;;4976908;28;20580;-85
2022/11/21 11:20:52;;;;;;;7.00;4.82;;;14.60;71.80;;;;;;4992248;28;20109;-85
2022/11/21 11:23:25;;;;;;;7.15;4.30;;;14.60;71.80;;;;;;4994030;28;20049;-85
2022/11/21 11:25:52;;;;;;;7.40;4.68;;;14.60;71.80;;;;;;4992274;28;20034;-85
2022/11/21 11:28:23;;;;;;;6.82;4.63;;;14.70;71.80;;;;;;4992862;28;20022;-85
2022/11/21 11:30:50;;;;;;;8.30;4.85;;;14.60;71.80;;;;;;4991615;28;20027;-85
2022/11/21 11:33:36;;;;;;;6.50;4.60;;;14.70;71.70;;;;;;4992254;28;20030;-85
2022/11/21 11:36:14;;;;;;;8.73;4.85;;;14.70;71.60;;;;;;4992237;28;20069;-84
2022/11/21 11:38:55;;;;;;;6.60;4.28;;;14.70;71.60;;;;;;4976094;28;20030;-85
2022/11/21 11:48:09;;;;;;;6.50;4.38;;;14.70;71.70;;;;;;4994206;28;20053;-85
2022/11/21 11:50:41;;;;;;;7.15;4.47;;;14.70;71.70;;;;;;4991712;28;20026;-86
2022/11/21 11:53:21;;;;;;;6.95;4.57;;;14.70;71.80;;;;;;4991838;28;20030;-84
2022/11/21 11:56:33;;;;;;;6.85;4.30;;;14.70;71.60;;;;;;4991991;28;20026;-85
2022/11/21 11:59:10;;;;;;;6.47;4.53;;;14.60;71.70;;;;;;4956622;28;20074;-84
2022/11/21 12:01:38;;;;;;;7.25;4.45;;;14.60;72.50;;;;;;4991725;28;20022;-85
2022/11/21 12:04:09;;;;;;;6.80;4.45;;;14.70;73.60;;;;;;4991805;28;20033;-86
2022/11/21 12:06:49;;;;;;;6.60;4.30;;;14.70;73.40;;;;;;4991923;28;20027;-85
2022/11/21 12:09:19;;;;;;;7.00;4.40;;;14.70;72.40;;;;;;4991815;28;20088;-85
2022/11/21 12:12:17;;;;;;;7.00;5.00;;;14.60;72.40;;;;;;4991574;28;20066;-84
2022/11/21 12:18:04;;;;;;;7.38;4.32;;;14.70;72.10;;;;;;5001877;28;20049;-85
2022/11/21 12:20:38;;;;;;;6.07;4.25;;;14.70;72.10;;;;;;4996315;28;20487;-84
2022/11/21 12:23:06;;;;;;;6.60;4.30;;;14.70;72.10;;;;;;4994922;28;20023;-84
2022/11/21 12:25:55;;;;;;;6.50;4.40;;;14.70;71.70;;;;;;4993593;28;20045;-85
2022/11/21 12:28:28;;;;;;;6.40;4.30;;;14.60;71.80;;;;;;4961060;28;20045;-84
2022/11/21 12:40:55;;;;;;;7.25;4.28;;;14.50;72.80;;;;;;4995166;28;20094;-85
2022/11/21 12:43:47;;;;;;;6.60;4.30;;;14.50;72.30;;;;;;4979682;28;20019;-84
2022/11/21 12:46:30;;;;;;;6.60;4.22;;;14.40;72.70;;;;;;4996182;28;20026;-85
2022/11/21 12:55:36;;;;;;;6.82;4.20;;;14.30;72.90;;;;;;4998456;28;20084;-84
2022/11/21 12:58:08;;;;;;;6.10;3.85;;;14.30;73.30;;;;;;4980368;28;20046;-85
2022/11/21 13:00:52;;;;;;;;;;;14.20;72.80;;;;;;4996505;28;20050;-85
2022/11/21 13:03:49;;;;;;;6.50;4.13;;;14.20;73.00;;;;;;4979743;28;20357;-85
2022/11/21 13:06:20;;;;;;;6.32;3.97;;;14.20;73.20;;;;;;4958515;28;20046;-85
2022/11/21 13:08:50;;;;;;;7.13;4.50;;;14.10;73.50;;;;;;4995599;28;20490;-85
2022/11/21 13:23:52;;;;;;;6.05;3.80;;;13.90;74.30;;;;;;5012670;28;20017;-85
2022/11/21 13:33:09;;;;;;;6.40;3.90;;;13.80;74.30;;;;;;5017157;28;20579;-84
2022/11/21 13:53:39;;;;;;;6.15;4.05;;;13.70;74.50;;;;;;5619303;22;20087;-84
2022/11/21 14:15:00;;;;;;;5.93;3.85;;;13.50;75.60;;;;;;5922724;22;21113;-77
2022/11/21 14:17:57;;;;;;;5.97;3.83;;;13.50;75.40;;;;;;4993531;28;20034;-75
2022/11/21 14:20:25;;;;;;;6.82;4.25;;;13.40;75.40;;;;;;4992018;28;20026;-77
2022/11/21 14:23:14;;;;;;;6.03;3.88;;;13.50;75.50;;;;;;4993641;28;20395;-76
2022/11/21 14:25:59;;;;;;;6.33;3.80;;;13.40;75.50;;;;;;4993543;28;20084;-77
2022/11/21 14:28:25;;;;;;;6.38;4.10;;;13.40;75.40;;;;;;4975907;28;20025;-76
2022/11/21 14:31:09;;;;;;;5.97;3.53;;;13.40;75.50;;;;;;4993062;28;20034;-79
2022/11/21 14:33:36;;;;;;;6.43;4.10;;;13.40;75.70;;;;;;4993309;28;20503;-76
2022/11/21 14:36:04;;;;;;;6.18;3.72;;;13.40;75.60;;;;;;4975681;28;20113;-77
2022/11/21 14:38:34;;;;;;;6.13;3.78;;;13.30;75.60;;;;;;4975819;28;20027;-79
2022/11/21 14:41:26;;;;;;;5.75;3.90;;;13.30;75.70;;;;;;4975528;28;20026;-77
2022/11/21 14:43:58;;;;;;;6.00;3.65;;;13.30;75.60;;;;;;4993179;28;20023;-78
2022/11/21 14:46:25;;;;;;;6.13;3.92;;;13.30;75.70;;;;;;4975630;28;20029;-77
2022/11/21 14:48:52;;;;;;;5.80;3.92;;;13.30;75.60;;;;;;4975700;28;20030;-77
2022/11/21 14:51:21;;;;;;;6.85;4.03;;;13.30;75.70;;;;;;4993036;28;20022;-78
2022/11/21 14:53:49;;;;;;;6.25;3.97;;;13.20;75.70;;;;;;4975553;28;20034;-79
2022/11/21 14:56:24;;;;;;;6.78;3.88;;;13.20;75.60;;;;;;4975015;28;20045;-78
2022/11/21 14:58:51;;;;;;;6.22;3.72;;;13.20;75.70;;;;;;4993001;28;20022;-79
2022/11/21 15:01:28;;;;;;;6.10;3.97;;;13.20;75.30;;;;;;4974146;28;20458;-79
2022/11/21 15:03:56;;;;;;;6.85;4.43;;;13.20;75.00;;;;;;4975127;28;20176;-78
2022/11/21 15:06:22;;;;;;;6.93;4.25;;;13.20;74.90;;;;;;4974774;28;20026;-80
2022/11/21 15:08:47;;;;;;;6.70;4.32;;;13.20;74.60;;;;;;4975419;28;20029;-80
2022/11/21 15:11:16;;;;;;;6.43;3.72;;;13.20;74.40;;;;;;4992261;28;20374;-77
2022/11/21 15:13:48;;;;;;;6.10;4.03;;;13.30;74.50;;;;;;4975362;28;20249;-76
2022/11/21 15:16:14;;;;;;;5.88;3.90;;;13.20;74.50;;;;;;4992368;28;20035;-78
2022/11/21 15:18:41;;;;;;;7.53;4.43;;;13.30;74.80;;;;;;4975035;28;20446;-77
2022/11/21 15:21:11;;;;;;;6.10;3.80;;;13.30;75.20;;;;;;4992124;28;20088;-79
2022/11/21 15:23:39;;;;;;;6.10;3.85;;;13.20;75.40;;;;;;4975219;28;20058;-79
2022/11/21 15:26:05;;;;;;;6.20;3.92;;;13.20;75.40;;;;;;4975228;28;20254;-77
2022/11/21 15:28:31;;;;;;;6.15;3.78;;;13.20;75.40;;;;;;4974869;28;20022;-77
2022/11/21 15:31:19;;;;;;;6.47;3.70;;;13.20;75.60;;;;;;4974635;28;20030;-79
2022/11/21 15:34:02;;;;;;;6.03;3.85;;;13.10;75.60;;;;;;4974922;28;20069;-77
2022/11/21 15:36:29;;;;;;;6.57;4.22;;;13.10;75.80;;;;;;4992071;28;20086;-77
2022/11/21 15:39:00;;;;;;;6.32;3.97;;;13.10;75.90;;;;;;4992144;28;20037;-77
2022/11/21 15:41:31;;;;;;;6.32;4.38;;;13.10;76.00;;;;;;4991906;28;20026;-76
2022/11/21 15:43:59;;;;;;;6.93;4.18;;;13.10;76.00;;;;;;4992126;28;20060;-77
2022/11/21 15:46:26;;;;;;;6.50;4.10;;;13.10;76.10;;;;;;4991960;28;20488;-76
2022/11/21 15:48:57;;;;;;;6.53;3.97;;;13.10;76.20;;;;;;4992152;28;20096;-79
2022/11/21 15:51:29;;;;;;;6.55;4.30;;;13.00;75.90;;;;;;4974246;28;20030;-78
2022/11/21 15:53:54;;;;;;;;;;;13.00;75.80;;;;;;4993706;28;20023;-80